createdAt,value
2022-11-29T00:02:55.978Z,10.27
2022-11-29T00:08:01.187Z,8.52
2022-11-29T00:13:06.349Z,7.93
2022-11-29T00:18:14.152Z,7.97
2022-11-29T00:23:19.356Z,7.85
2022-11-29T00:28:24.423Z,8.60
2022-11-29T00:33:32.215Z,9.13
2022-11-29T00:38:37.253Z,9.68
2022-11-29T00:43:42.517Z,10.02
2022-11-29T00:48:50.531Z,14.07
2022-11-29T00:53:55.726Z,10.35
2022-11-29T00:59:00.853Z,9.80
2022-11-29T01:04:08.649Z,10.73
2022-11-29T01:09:13.751Z,11.05
2022-11-29T01:14:18.835Z,11.68
2022-11-29T01:19:26.538Z,12.02
2022-11-29T01:24:33.289Z,11.70
2022-11-29T01:29:39.670Z,11.05
2022-11-29T01:34:47.419Z,10.85
2022-11-29T01:39:52.543Z,12.10
2022-11-29T01:45:10.951Z,12.65
2022-11-29T01:50:18.679Z,13.43
2022-11-29T01:55:24.019Z,12.85
2022-11-29T02:00:29.866Z,14.63
2022-11-29T02:05:37.731Z,12.02
2022-11-29T02:11:00.222Z,12.50
2022-11-29T02:16:10.387Z,12.63
2022-11-29T02:21:29.738Z,13.85
2022-11-29T02:27:13.019Z,12.98
2022-11-29T02:32:43.756Z,15.82
2022-11-29T02:38:11.531Z,15.43
2022-11-29T02:43:54.535Z,13.98
2022-11-29T02:49:08.086Z,13.73
2022-11-29T02:54:20.786Z,13.25
2022-11-29T02:59:39.800Z,12.40
2022-11-29T03:04:52.736Z,13.55
2022-11-29T03:10:04.214Z,13.07
2022-11-29T03:15:20.430Z,13.38
2022-11-29T03:20:32.717Z,13.80
2022-11-29T03:25:43.019Z,14.43
2022-11-29T03:30:54.354Z,15.75
2022-11-29T03:36:07.050Z,14.25
2022-11-29T03:41:21.162Z,13.40
2022-11-29T03:46:31.265Z,14.35
2022-11-29T03:51:52.725Z,14.95
2022-11-29T03:56:58.853Z,13.40
2022-11-29T04:02:39.164Z,14.30
2022-11-29T04:07:57.302Z,13.65
2022-11-29T04:13:29.428Z,14.35
2022-11-29T04:19:04.327Z,14.85
2022-11-29T04:24:44.922Z,14.68
2022-11-29T04:30:04.596Z,13.75
2022-11-29T04:35:23.618Z,13.30
2022-11-29T04:40:46.506Z,13.43
2022-11-29T04:46:02.355Z,14.23
2022-11-29T04:51:16.247Z,13.30
2022-11-29T04:56:29.195Z,12.77
2022-11-29T05:01:42.247Z,13.50
2022-11-29T05:06:53.138Z,12.85
2022-11-29T05:12:08.000Z,13.35
2022-11-29T05:17:28.568Z,14.73
2022-11-29T05:22:37.975Z,13.77
2022-11-29T05:27:49.724Z,12.98
2022-11-29T05:33:00.061Z,12.85
2022-11-29T05:38:14.265Z,13.15
2022-11-29T05:43:38.157Z,11.43
2022-11-29T05:48:49.793Z,12.68
2022-11-29T05:54:02.469Z,13.70
2022-11-29T05:59:12.658Z,13.25
2022-11-29T06:04:21.309Z,14.85
2022-11-29T06:09:30.938Z,13.10
2022-11-29T06:14:55.726Z,12.00
2022-11-29T06:20:23.696Z,11.98
2022-11-29T06:31:00.789Z,11.30
2022-11-29T06:36:15.109Z,11.85
2022-11-29T06:41:23.389Z,11.85
2022-11-29T06:46:39.844Z,13.27
2022-11-29T06:51:53.673Z,12.88
2022-11-29T06:57:02.318Z,13.07
2022-11-29T07:02:27.842Z,12.55
2022-11-29T07:07:34.398Z,13.20
2022-11-29T07:12:40.190Z,11.77
2022-11-29T07:17:55.382Z,14.20
2022-11-29T07:23:06.439Z,13.13
2022-11-29T07:28:19.510Z,14.65
2022-11-29T07:33:31.668Z,14.40
2022-11-29T07:38:44.593Z,15.15
2022-11-29T07:43:55.016Z,14.52
2022-11-29T07:49:05.699Z,14.40
2022-11-29T07:54:10.928Z,13.25
2022-11-29T07:59:16.064Z,13.30
2022-11-29T08:04:23.770Z,14.13
2022-11-29T08:09:28.951Z,13.20
2022-11-29T08:14:35.361Z,13.20
2022-11-29T08:19:43.111Z,14.02
2022-11-29T08:24:48.430Z,15.05
2022-11-29T08:29:53.594Z,17.23
2022-11-29T08:35:03.523Z,12.98
2022-11-29T08:40:10.268Z,12.23
2022-11-29T08:45:15.490Z,13.23
2022-11-29T08:50:23.593Z,13.05
2022-11-29T08:55:31.172Z,12.02
2022-11-29T09:00:36.914Z,12.60
2022-11-29T09:05:44.575Z,12.05
2022-11-29T09:10:50.230Z,11.70
2022-11-29T09:15:55.261Z,11.60
2022-11-29T09:21:03.390Z,11.70
2022-11-29T09:26:09.506Z,11.65
2022-11-29T09:31:16.284Z,10.90
2022-11-29T09:36:28.563Z,9.68
2022-11-29T09:41:54.611Z,11.82
2022-11-29T09:47:05.231Z,10.98
2022-11-29T09:52:19.743Z,10.05
2022-11-29T09:57:29.667Z,10.43
2022-11-29T10:02:46.096Z,12.82
2022-11-29T10:07:59.985Z,10.10
2022-11-29T10:13:19.414Z,9.63
2022-11-29T10:18:27.778Z,10.10
2022-11-29T10:23:41.011Z,12.27
2022-11-29T10:28:48.886Z,10.48
2022-11-29T10:33:54.316Z,12.30
2022-11-29T10:39:13.001Z,12.93
2022-11-29T10:44:20.663Z,13.75
2022-11-29T10:49:30.382Z,17.65
2022-11-29T10:54:42.954Z,17.00
2022-11-29T11:00:04.693Z,14.23
2022-11-29T11:05:19.058Z,14.02
2022-11-29T11:10:31.129Z,9.73
2022-11-29T11:15:37.065Z,8.73
2022-11-29T11:20:45.565Z,9.18
2022-11-29T11:26:02.185Z,6.45
2022-11-29T11:31:09.394Z,5.15
2022-11-29T11:36:17.143Z,5.65
2022-11-29T11:41:47.583Z,5.88
2022-11-29T11:46:56.470Z,5.72
2022-11-29T11:52:02.323Z,6.10
2022-11-29T11:57:19.879Z,5.45
2022-11-29T12:02:30.161Z,7.30
2022-11-29T12:08:07.325Z,9.07
2022-11-29T12:13:22.491Z,8.43
2022-11-29T12:18:31.246Z,8.73
2022-11-29T12:23:40.801Z,8.65
2022-11-29T12:28:51.047Z,12.10
2022-11-29T12:34:05.526Z,10.60
2022-11-29T12:39:23.975Z,9.63
2022-11-29T12:44:43.374Z,7.85
2022-11-29T12:49:58.819Z,7.90
2022-11-29T12:55:10.930Z,7.55
2022-11-29T13:00:20.290Z,7.93
2022-11-29T13:37:28.109Z,9.05
2022-11-29T13:49:11.376Z,9.88
2022-11-29T14:11:07.248Z,10.60
2022-11-29T14:28:53.048Z,9.00
2022-11-29T15:30:37.110Z,11.70
2022-11-29T15:36:09.921Z,11.10
2022-11-29T15:41:26.343Z,11.52
2022-11-29T15:46:41.200Z,12.15
2022-11-29T15:51:50.952Z,12.20
2022-11-29T15:56:58.203Z,13.02
2022-11-29T16:02:05.719Z,14.80
2022-11-29T16:07:13.734Z,14.15
2022-11-29T16:12:20.632Z,13.95
2022-11-29T16:17:28.535Z,16.55
2022-11-29T16:22:36.178Z,19.05
2022-11-29T16:27:41.267Z,31.85
2022-11-29T16:32:47.476Z,31.50
2022-11-29T16:37:55.254Z,29.40
2022-11-29T16:43:13.433Z,20.88
2022-11-29T16:48:38.239Z,13.95
2022-11-29T16:53:47.912Z,14.90
2022-11-29T16:59:17.350Z,14.77
2022-11-29T17:04:23.734Z,13.23
2022-11-29T17:09:34.504Z,15.10
2022-11-29T17:14:39.645Z,14.07
2022-11-29T17:19:44.944Z,14.15
2022-11-29T17:24:52.809Z,15.05
2022-11-29T17:29:58.129Z,15.43
2022-11-29T17:35:03.262Z,18.40
2022-11-29T17:40:13.876Z,21.00
2022-11-29T17:45:19.063Z,16.98
2022-11-29T17:50:24.076Z,15.70
2022-11-29T17:55:31.631Z,17.20
2022-11-29T18:00:36.593Z,17.63
2022-11-29T18:05:41.582Z,17.30
2022-11-29T18:10:52.027Z,17.70
2022-11-29T18:15:57.063Z,16.70
2022-11-29T18:21:02.421Z,18.85
2022-11-29T18:26:11.887Z,18.98
2022-11-29T18:31:18.851Z,17.15
2022-11-29T18:36:25.908Z,17.50
2022-11-29T18:41:34.608Z,17.92
2022-11-29T18:46:40.705Z,18.33
2022-11-29T18:51:47.285Z,17.73
2022-11-29T18:56:55.572Z,19.10
2022-11-29T19:02:00.745Z,16.92
2022-11-29T19:07:05.875Z,18.75
2022-11-29T19:12:13.816Z,17.80
2022-11-29T19:17:19.008Z,15.95
2022-11-29T19:22:24.117Z,16.55
2022-11-29T19:27:32.015Z,15.73
2022-11-29T19:32:44.883Z,15.60
2022-11-29T19:38:34.754Z,18.40
2022-11-29T19:44:09.865Z,19.02
2022-11-29T19:49:29.008Z,18.15
2022-11-29T19:54:34.479Z,17.15
2022-11-29T19:59:42.521Z,16.63
2022-11-29T20:04:51.743Z,16.50
2022-11-29T20:10:09.129Z,15.90
2022-11-29T20:15:17.272Z,16.17
2022-11-29T20:20:22.697Z,16.65
2022-11-29T20:25:28.067Z,17.58
2022-11-29T20:30:37.369Z,14.77
2022-11-29T20:35:42.621Z,15.43
2022-11-29T20:41:02.285Z,15.23
2022-11-29T20:46:14.620Z,15.65
2022-11-29T20:51:32.758Z,15.95
2022-11-29T20:56:41.969Z,17.08
2022-11-29T21:02:00.321Z,15.95
2022-11-29T21:07:05.553Z,17.23
2022-11-29T21:12:52.598Z,16.88
2022-11-29T21:18:04.090Z,17.55
2022-11-29T21:23:24.339Z,18.55
2022-11-29T21:28:43.742Z,17.00
2022-11-29T21:34:07.194Z,17.55
2022-11-29T21:39:23.626Z,20.80
2022-11-29T21:44:28.754Z,17.83
2022-11-29T21:49:43.391Z,18.58
2022-11-29T21:54:48.934Z,20.90
2022-11-29T22:00:00.545Z,22.08
2022-11-29T22:05:11.723Z,20.58
2022-11-29T22:10:17.245Z,20.17
2022-11-29T22:15:25.099Z,20.38
2022-11-29T22:20:33.393Z,18.05
2022-11-29T22:25:41.173Z,17.95
2022-11-29T22:30:46.476Z,17.80
2022-11-29T22:35:56.744Z,17.95
2022-11-29T22:41:05.711Z,19.35
2022-11-29T22:46:12.578Z,20.80
2022-11-29T22:51:22.045Z,18.45
2022-11-29T22:56:31.393Z,18.20
2022-11-29T23:01:37.781Z,17.38
2022-11-29T23:06:46.888Z,18.15
2022-11-29T23:11:56.446Z,18.13
2022-11-29T23:17:01.653Z,18.75
2022-11-29T23:22:09.419Z,17.35
2022-11-29T23:27:14.391Z,18.92
2022-11-29T23:32:19.447Z,18.35
2022-11-29T23:37:27.376Z,17.95
2022-11-29T23:42:32.500Z,17.25
2022-11-29T23:47:37.482Z,16.02
2022-11-29T23:52:45.207Z,16.50
2022-11-29T23:57:50.284Z,17.00
